Lorida, Florida
Current Conditions -  °F | °C
As of 10:15 PM on Thursday 27 Nov 2014 (Local Time) from KOBE Reporting Station
Clear Clear  
Wind Chill:   Ceiling: Unl
Heat Index:   Visibility: 10mi
Dew Point:   Wind: 8mph
Humidity: 76%   Direction: 340°NNW
Pressure: 30.25"   Gusts: NA
Location:  27.44°N, 81.25°W
Report Text: KOBE 280315Z AUTO 34007KT 10SM CLR 09/05 A3025 RMK AO2
Loading
Personal Weather Stations






























Interactive Weather Map New forecast layout! Learn more

10-Day Weather Forecast

Advertisements
Track Severe Weather on mobile